Aviation Digital Data Service (ADDS)

Output produced by METARs form (2334 UTC 18 October 2019)
found at http://www.aviationweather.gov/metar/data/
 
Forecast for: EDDC (DRESDEN/KLOTZSCH, DE)
Text: TAF EDDC 182300Z 1900/1924 21006KT 9999 SCT040
Forecast period: 0000 UTC 19 October 2019 to 0000 UTC 20 October 2019
Forecast type: FROM: standard forecast or significant change
Winds: from the SSW (210 degrees) at 7 MPH (6 knots; 3.1 m/s)
Visibility: 6 or more miles 10+ km)
Ceiling: at least 12,000 feet AGL
Clouds: scattered clouds at 4000 feet AGL
Weather: no significant weather forecast for this period
Text: BECMG 1900/1903 15006KT
Forecast period: 0000 UTC 19 October 2019 to 0000 UTC 20 October 2019
Forecast type: BECOMING: Conditions expected to become as follows by 0300 UTC 19 October 2019
Winds: from the SSE (150 degrees) at 7 MPH (6 knots; 3.1 m/s)
Visibility: 6 or more miles 10+ km)
Ceiling: at least 12,000 feet AGL
Clouds: scattered clouds at 4000 feet AGL
Weather: no significant weather forecast for this period